Terminal Aerodrome Forecast
Issued by NWS

Home | Current Version | Previous Version | Text Only | Print | Product List | Glossary On
Versions: 1 2 3 4 5 6 7 8 9 10 11 12 13 14 15 16 17 18 19 20 21 22 23 24
000
FTUS41 KILN 280253 AAB
TAFLUK
TAF AMD
KLUK 280253Z 2803/2824 00000KT 4SM BR VCSH FEW030 SCT070 OVC100
      TEMPO 2803/2807 4SM RA BR OVC028
     FM280700 28004KT 4SM BR VCSH OVC012
     FM281400 34007KT P6SM VCSH SCT018 OVC045
     FM282000 36009KT P6SM BKN040=

USA.gov is the U.S. government's official web portal to all federal, state and local government web resources and services.